Terminal Aerodrome Forecast
Issued by NWS

Home | Current Version | Previous Version | Text Only | Print | Product List | Glossary On
Versions: 1 2 3 4 5 6 7 8 9 10 11 12 13 14 15 16 17 18 19 20 21 22
380
FTUS43 KDVN 081120
TAFCID
TAF
KCID 081120Z 0812/0912 29016G24KT P6SM VCSH SCT025
     FM090900 30012KT P6SM FEW025=

USA.gov is the U.S. government's official web portal to all federal, state and local government web resources and services.